createdAt,value
2022-08-11T00:02:36.130Z,102419.09
2022-08-11T00:05:08.308Z,102415.50
2022-08-11T00:07:43.633Z,102417.47
2022-08-11T00:10:13.296Z,102414.03
2022-08-11T00:12:43.042Z,102412.53
2022-08-11T00:15:12.591Z,102409.31
2022-08-11T00:17:42.826Z,102418.19
2022-08-11T00:20:16.743Z,102416.47
2022-08-11T00:22:47.680Z,102419.53
2022-08-11T00:25:18.072Z,102417.38
2022-08-11T00:27:47.402Z,102414.28
2022-08-11T00:30:17.056Z,102415.13
2022-08-11T00:32:56.509Z,102416.63
2022-08-11T00:35:54.097Z,102417.34
2022-08-11T00:38:18.904Z,102417.22
2022-08-11T00:40:56.237Z,102416.38
2022-08-11T00:43:34.679Z,102418.34
2022-08-11T00:46:24.106Z,102420.63
2022-08-11T00:49:12.071Z,102416.06
2022-08-11T00:52:04.271Z,102421.31
2022-08-11T00:55:07.557Z,102421.66
2022-08-11T00:57:57.174Z,102424.81
2022-08-11T01:00:27.788Z,102424.59
2022-08-11T01:03:18.485Z,102428.16
2022-08-11T01:06:01.907Z,102428.28
2022-08-11T01:08:53.276Z,102421.00
2022-08-11T01:12:10.531Z,102420.94
2022-08-11T01:15:11.745Z,102422.91
2022-08-11T01:18:15.610Z,102423.84
2022-08-11T01:21:14.090Z,102428.63
2022-08-11T01:24:36.437Z,102427.22
2022-08-11T01:27:50.609Z,102433.44
2022-08-11T01:30:50.499Z,102424.69
2022-08-11T01:33:51.922Z,102430.19
2022-08-11T01:39:50.423Z,102431.59
2022-08-11T01:42:59.745Z,102426.53
2022-08-11T01:45:33.463Z,102424.03
2022-08-11T01:48:15.890Z,102422.44
2022-08-11T01:50:58.688Z,102427.97
2022-08-11T01:53:36.107Z,102428.28
2022-08-11T01:56:22.730Z,102430.22
2022-08-11T01:59:01.549Z,102427.75
2022-08-11T02:01:40.999Z,102424.94
2022-08-11T02:04:19.699Z,102431.22
2022-08-11T02:06:56.928Z,102423.31
2022-08-11T02:09:49.871Z,102432.41
2022-08-11T02:12:37.906Z,102423.75
2022-08-11T02:15:15.664Z,102423.75
2022-08-11T02:17:55.121Z,102414.66
2022-08-11T02:20:46.071Z,102412.06
2022-08-11T02:24:06.220Z,102418.78
2022-08-11T02:26:39.626Z,102413.16
2022-08-11T02:29:17.081Z,102409.69
2022-08-11T02:32:30.286Z,102407.22
2022-08-11T02:35:11.358Z,102413.88
2022-08-11T02:37:51.457Z,102420.09
2022-08-11T02:40:27.543Z,102424.63
2022-08-11T02:43:05.577Z,102414.84
2022-08-11T02:45:48.643Z,102414.84
2022-08-11T02:48:55.835Z,102407.59
2022-08-11T02:51:36.258Z,102413.31
2022-08-11T02:54:11.351Z,102415.28
2022-08-11T02:56:47.864Z,102424.34
2022-08-11T02:59:44.265Z,102411.81
2022-08-11T03:02:23.700Z,102410.06
2022-08-11T03:05:04.411Z,102416.34
2022-08-11T03:07:43.468Z,102414.19
2022-08-11T03:10:21.782Z,102416.47
2022-08-11T03:13:15.656Z,102415.47
2022-08-11T03:16:04.510Z,102416.34
2022-08-11T03:18:42.303Z,102411.38
2022-08-11T03:21:17.381Z,102415.94
2022-08-11T03:23:56.346Z,102409.00
2022-08-11T03:26:29.650Z,102409.31
2022-08-11T03:29:07.006Z,102414.84
2022-08-11T03:31:38.635Z,102420.34
2022-08-11T03:34:15.141Z,102410.72
2022-08-11T03:37:39.257Z,102417.19
2022-08-11T03:40:40.447Z,102415.06
2022-08-11T03:43:18.336Z,102419.06
2022-08-11T03:45:57.445Z,102407.47
2022-08-11T03:48:39.548Z,102424.09
2022-08-11T03:51:19.922Z,102417.00
2022-08-11T03:54:09.545Z,102412.75
2022-08-11T03:57:21.239Z,102412.00
2022-08-11T04:00:20.484Z,102424.53
2022-08-11T04:03:23.751Z,102417.19
2022-08-11T04:06:38.383Z,102419.03
2022-08-11T04:10:03.245Z,102412.88
2022-08-11T04:13:18.861Z,102419.44
2022-08-11T04:16:23.670Z,102421.50
2022-08-11T04:19:24.826Z,102424.38
2022-08-11T04:22:20.057Z,102413.59
2022-08-11T04:25:22.456Z,102418.03
2022-08-11T04:28:31.436Z,102413.47
2022-08-11T04:31:10.186Z,102412.81
2022-08-11T04:34:16.800Z,102417.16
2022-08-11T04:37:35.005Z,102411.88
2022-08-11T04:40:53.850Z,102411.97
2022-08-11T04:44:02.645Z,102408.06
2022-08-11T04:46:59.397Z,102409.06
2022-08-11T04:49:59.281Z,102411.88
2022-08-11T04:53:05.532Z,102424.53
2022-08-11T04:56:21.060Z,102413.31
2022-08-11T04:59:19.409Z,102412.13
2022-08-11T05:02:17.302Z,102410.06
2022-08-11T05:05:27.441Z,102413.31
2022-08-11T05:08:50.941Z,102416.66
2022-08-11T05:11:46.099Z,102413.00
2022-08-11T05:14:54.846Z,102415.06
2022-08-11T05:17:55.170Z,102418.97
2022-08-11T05:20:43.782Z,102414.88
2022-08-11T05:23:30.516Z,102414.44
2022-08-11T05:26:46.421Z,102414.97
2022-08-11T05:29:45.511Z,102413.88
2022-08-11T05:32:34.829Z,102406.09
2022-08-11T05:35:07.635Z,102411.81
2022-08-11T05:37:42.331Z,102414.81
2022-08-11T05:40:30.397Z,102419.34
2022-08-11T05:43:19.427Z,102410.03
2022-08-11T05:46:15.748Z,102415.09
2022-08-11T05:49:02.316Z,102410.66
2022-08-11T05:51:55.473Z,102412.72
2022-08-11T05:54:46.207Z,102418.41
2022-08-11T05:57:48.559Z,102418.28
2022-08-11T06:00:12.431Z,102418.34
2022-08-11T06:02:44.677Z,102412.91
2022-08-11T06:05:14.305Z,102417.63
2022-08-11T06:07:48.373Z,102413.59
2022-08-11T06:10:28.192Z,102416.97
2022-08-11T06:12:56.973Z,102419.28
2022-08-11T06:15:27.571Z,102422.69
2022-08-11T06:17:56.959Z,102422.44
2022-08-11T06:20:26.488Z,102419.78
2022-08-11T06:22:59.732Z,102416.25
2022-08-11T06:25:33.043Z,102421.06
2022-08-11T06:28:01.770Z,102421.97
2022-08-11T06:30:40.783Z,102418.38
2022-08-11T06:33:12.553Z,102422.13
2022-08-11T06:35:49.676Z,102420.63
2022-08-11T06:38:32.269Z,102422.91
2022-08-11T06:41:22.447Z,102417.94
2022-08-11T06:43:56.346Z,102416.47
2022-08-11T06:46:32.206Z,102424.25
2022-08-11T06:49:03.948Z,102417.66
2022-08-11T06:51:32.494Z,102420.63
2022-08-11T06:54:05.686Z,102418.50
2022-08-11T06:57:18.588Z,102416.97
2022-08-11T07:00:01.877Z,102417.13
2022-08-11T07:02:34.980Z,102400.84
2022-08-11T07:05:08.893Z,102410.53
2022-08-11T07:08:33.727Z,102413.97
2022-08-11T07:11:39.780Z,102404.38
2022-08-11T07:14:26.608Z,102410.44
2022-08-11T07:16:55.430Z,102411.94
2022-08-11T07:19:46.022Z,102401.41
2022-08-11T07:22:32.953Z,102408.34
2022-08-11T07:25:21.720Z,102413.97
2022-08-11T07:28:15.045Z,102410.22
2022-08-11T07:30:44.054Z,102413.50
2022-08-11T07:34:04.867Z,102413.50
2022-08-11T07:36:06.634Z,102415.41
2022-08-11T07:38:47.520Z,102412.59
2022-08-11T07:41:17.438Z,102406.34
2022-08-11T07:43:49.756Z,102411.31
2022-08-11T07:46:35.873Z,102404.13
2022-08-11T07:49:23.120Z,102407.00
2022-08-11T07:52:11.785Z,102404.59
2022-08-11T07:54:41.672Z,102408.28
2022-08-11T07:58:14.647Z,102406.47
2022-08-11T08:00:35.526Z,102410.44
2022-08-11T08:03:22.345Z,102403.19
2022-08-11T08:06:35.487Z,102414.13
2022-08-11T08:09:15.990Z,102414.84
2022-08-11T08:12:03.647Z,102412.66
2022-08-11T08:14:49.311Z,102410.06
2022-08-11T08:17:35.530Z,102413.63
2022-08-11T08:20:03.946Z,102410.31
2022-08-11T08:22:39.073Z,102413.63
2022-08-11T08:25:10.489Z,102412.22
2022-08-11T08:27:40.340Z,102408.72
2022-08-11T08:30:27.204Z,102418.88
2022-08-11T08:32:57.808Z,102409.88
2022-08-11T08:35:29.425Z,102409.38
2022-08-11T08:38:00.919Z,102414.59
2022-08-11T08:40:30.589Z,102408.44
2022-08-11T08:43:03.224Z,102408.50
2022-08-11T08:45:37.671Z,102415.72
2022-08-11T08:48:15.977Z,102401.94
2022-08-11T08:51:11.128Z,102406.72
2022-08-11T08:53:52.460Z,102403.53
2022-08-11T08:56:29.085Z,102403.84
2022-08-11T08:59:00.568Z,102401.31
2022-08-11T09:01:32.334Z,102402.75
2022-08-11T09:04:06.690Z,102395.31
2022-08-11T09:06:41.180Z,102389.88
2022-08-11T09:09:12.191Z,102394.91
2022-08-11T09:11:53.533Z,102390.94
2022-08-11T09:14:24.358Z,102383.28
2022-08-11T09:16:54.323Z,102383.16
2022-08-11T09:19:22.872Z,102372.44
2022-08-11T09:22:08.871Z,102378.00
2022-08-11T09:24:51.925Z,102370.22
2022-08-11T09:27:22.505Z,102374.84
2022-08-11T09:29:51.856Z,102373.34
2022-08-11T09:32:21.731Z,102378.72
2022-08-11T09:34:54.150Z,102377.13
2022-08-11T09:37:54.923Z,102370.44
2022-08-11T09:40:33.804Z,102365.81
2022-08-11T09:43:23.980Z,102357.81
2022-08-11T09:45:54.138Z,102366.56
2022-08-11T09:48:24.675Z,102357.03
2022-08-11T09:50:55.918Z,102357.31
2022-08-11T09:53:36.167Z,102353.31
2022-08-11T09:56:30.563Z,102346.94
2022-08-11T09:59:00.956Z,102351.94
2022-08-11T10:01:33.146Z,102337.81
2022-08-11T10:04:07.541Z,102333.09
2022-08-11T10:06:56.430Z,102333.00
2022-08-11T10:09:26.129Z,102337.28
2022-08-11T10:11:58.710Z,102335.75
2022-08-11T10:14:48.911Z,102327.47
2022-08-11T10:17:20.113Z,102318.16
2022-08-11T10:20:04.059Z,102313.91
2022-08-11T10:22:52.873Z,102316.09
2022-08-11T10:25:39.797Z,102305.69
2022-08-11T10:28:29.010Z,102306.28
2022-08-11T10:31:18.341Z,102303.44
2022-08-11T10:34:06.839Z,102307.94
2022-08-11T10:36:45.049Z,102290.13
2022-08-11T10:39:18.016Z,102297.69
2022-08-11T10:42:09.622Z,102297.19
2022-08-11T10:44:43.328Z,102301.97
2022-08-11T10:47:33.060Z,102287.25
2022-08-11T10:50:19.326Z,102293.56
2022-08-11T10:53:08.443Z,102294.88
2022-08-11T10:55:54.773Z,102288.22
2022-08-11T10:58:44.647Z,102292.38
2022-08-11T11:01:13.483Z,102283.31
2022-08-11T11:03:44.126Z,102278.81
2022-08-11T11:06:28.237Z,102277.56
2022-08-11T11:09:05.372Z,102286.00
2022-08-11T11:11:55.793Z,102271.81
2022-08-11T11:14:46.374Z,102263.53
2022-08-11T11:17:38.932Z,102281.13
2022-08-11T11:20:10.072Z,102281.75
2022-08-11T11:23:04.884Z,102273.69
2022-08-11T11:26:07.514Z,102272.63
2022-08-11T11:28:58.003Z,102274.53
2022-08-11T11:31:37.192Z,102270.06
2022-08-11T11:34:28.143Z,102267.59
2022-08-11T11:36:58.672Z,102272.38
2022-08-11T11:39:28.521Z,102270.06
2022-08-11T11:41:58.386Z,102271.94
2022-08-11T11:44:27.150Z,102270.72
2022-08-11T11:46:56.794Z,102279.97
2022-08-11T11:49:28.213Z,102274.78
2022-08-11T11:51:59.187Z,102273.63
2022-08-11T11:54:28.803Z,102277.03
2022-08-11T11:56:58.666Z,102273.13
2022-08-11T11:59:47.183Z,102274.97
2022-08-11T12:02:17.438Z,102270.06
2022-08-11T12:04:48.801Z,102265.09
2022-08-11T12:07:35.976Z,102260.63
2022-08-11T12:10:04.700Z,102263.00
2022-08-11T12:12:50.828Z,102257.50
2022-08-11T12:15:19.896Z,102257.66
2022-08-11T12:18:08.565Z,102264.56
2022-08-11T12:20:36.711Z,102256.78
2022-08-11T12:23:23.838Z,102249.38
2022-08-11T12:26:26.294Z,102249.50
2022-08-11T12:28:59.012Z,102244.34
2022-08-11T12:31:27.230Z,102245.69
2022-08-11T12:34:00.799Z,102239.53
2022-08-11T12:36:29.877Z,102244.84
2022-08-11T12:38:59.761Z,102246.19
2022-08-11T12:41:53.445Z,102238.41
2022-08-11T12:44:43.782Z,102230.59
2022-08-11T12:47:12.504Z,102223.50
2022-08-11T12:50:05.389Z,102221.59
2022-08-11T12:52:37.431Z,102214.84
2022-08-11T12:55:13.790Z,102214.41
2022-08-11T12:58:04.094Z,102196.38
2022-08-11T13:00:51.034Z,102210.88
2022-08-11T13:03:38.934Z,102198.06
2022-08-11T13:06:08.768Z,102204.78
2022-08-11T13:08:40.865Z,102189.28
2022-08-11T13:11:56.221Z,102186.88
2022-08-11T13:14:17.898Z,102184.03
2022-08-11T13:17:04.843Z,102180.31
2022-08-11T13:19:34.527Z,102182.88
2022-08-11T13:22:07.534Z,102181.28
2022-08-11T13:24:37.211Z,102171.88
2022-08-11T13:27:07.660Z,102178.41
2022-08-11T13:29:36.795Z,102169.84
2022-08-11T13:32:04.547Z,102168.84
2022-08-11T13:34:33.408Z,102167.97
2022-08-11T13:37:04.274Z,102164.53
2022-08-11T13:39:34.643Z,102163.75
2022-08-11T13:42:04.206Z,102163.47
2022-08-11T13:44:37.924Z,102158.16
2022-08-11T13:47:08.302Z,102158.56
2022-08-11T13:49:39.983Z,102160.84
2022-08-11T13:52:14.027Z,102155.00
2022-08-11T13:54:43.644Z,102153.44
2022-08-11T13:58:06.323Z,102151.31
2022-08-11T14:00:22.538Z,102158.44
2022-08-11T14:02:57.998Z,102146.31
2022-08-11T14:05:29.478Z,102154.41
2022-08-11T14:08:02.602Z,102141.47
2022-08-11T14:10:34.274Z,102139.94
2022-08-11T14:13:21.225Z,102144.41
2022-08-11T14:15:52.513Z,102140.91
2022-08-11T14:18:23.709Z,102139.75
2022-08-11T14:21:14.998Z,102135.75
2022-08-11T14:23:45.369Z,102135.09
2022-08-11T14:26:27.031Z,102132.66
2022-08-11T14:29:02.199Z,102130.44
2022-08-11T14:31:34.530Z,102119.44
2022-08-11T14:34:05.660Z,102112.03
2022-08-11T14:36:38.112Z,102114.59
2022-08-11T14:39:11.663Z,102110.03
2022-08-11T14:42:12.087Z,102113.66
2022-08-11T14:45:02.202Z,102114.13
2022-08-11T14:47:35.969Z,102109.94
2022-08-11T14:50:10.898Z,102110.53
2022-08-11T14:52:45.012Z,102099.97
2022-08-11T14:55:32.865Z,102105.75
2022-08-11T14:58:02.265Z,102105.91
2022-08-11T15:00:31.115Z,102107.59
2022-08-11T15:03:14.013Z,102106.41
2022-08-11T15:05:56.030Z,102105.53
2022-08-11T15:08:42.446Z,102111.44
2022-08-11T15:11:32.493Z,102101.44
2022-08-11T15:14:02.471Z,102107.50
2022-08-11T15:16:48.812Z,102100.56
2022-08-11T15:19:21.254Z,102096.69
2022-08-11T15:22:07.154Z,102098.63
2022-08-11T15:24:36.544Z,102106.63
2022-08-11T15:27:24.099Z,102098.63
2022-08-11T15:30:20.224Z,102101.09
2022-08-11T15:33:17.817Z,102093.72
2022-08-11T15:36:05.280Z,102087.06
2022-08-11T15:38:37.244Z,102085.53
2022-08-11T15:41:25.121Z,102085.66
2022-08-11T15:44:12.966Z,102085.53
2022-08-11T15:46:43.371Z,102083.56
2022-08-11T15:49:21.881Z,102077.88
2022-08-11T15:52:01.873Z,102075.28
2022-08-11T15:54:33.149Z,102076.69
2022-08-11T15:57:03.349Z,102075.13
2022-08-11T15:59:51.001Z,102071.19
2022-08-11T16:02:40.050Z,102074.97
2022-08-11T16:05:14.425Z,102077.25
2022-08-11T16:08:05.268Z,102071.53
2022-08-11T16:10:35.753Z,102063.50
2022-08-11T16:13:19.821Z,102065.69
2022-08-11T16:16:08.591Z,102071.91
2022-08-11T16:18:42.840Z,102072.09
2022-08-11T16:21:34.147Z,102065.84
2022-08-11T16:24:06.072Z,102069.84
2022-08-11T16:27:08.488Z,102067.38
2022-08-11T16:29:26.430Z,102065.28
2022-08-11T16:32:14.527Z,102065.47
2022-08-11T16:35:02.455Z,102060.47
2022-08-11T16:37:49.932Z,102064.28
2022-08-11T16:40:22.642Z,102060.00
2022-08-11T16:43:11.670Z,102063.44
2022-08-11T16:45:59.657Z,102061.56
2022-08-11T16:48:35.134Z,102069.84
2022-08-11T16:51:06.646Z,102067.66
2022-08-11T16:54:03.359Z,102069.56
2022-08-11T16:56:29.624Z,102073.22
2022-08-11T16:59:16.670Z,102071.16
2022-08-11T17:01:49.214Z,102067.84
2022-08-11T17:04:46.153Z,102065.19
2022-08-11T17:07:41.944Z,102064.34
2022-08-11T17:10:50.806Z,102063.06
2022-08-11T17:13:25.510Z,102062.09
2022-08-11T17:16:11.935Z,102058.69
2022-08-11T17:18:46.955Z,102059.41
2022-08-11T17:21:21.457Z,102056.66
2022-08-11T17:23:55.376Z,102048.09
2022-08-11T17:26:27.569Z,102062.88
2022-08-11T17:29:00.453Z,102067.50
2022-08-11T17:31:47.639Z,102059.44
2022-08-11T17:34:33.874Z,102060.50
2022-08-11T17:37:02.858Z,102056.56
2022-08-11T17:39:32.781Z,102055.91
2022-08-11T17:42:20.553Z,102059.31
2022-08-11T17:45:08.044Z,102054.72
2022-08-11T17:47:54.259Z,102054.06
2022-08-11T17:50:23.281Z,102054.25
2022-08-11T17:53:09.962Z,102055.94
2022-08-11T17:55:58.049Z,102056.63
2022-08-11T17:58:47.482Z,102058.56
2022-08-11T18:01:18.747Z,102055.78
2022-08-11T18:03:57.679Z,102055.81
2022-08-11T18:06:33.561Z,102052.72
2022-08-11T18:09:22.684Z,102058.38
2022-08-11T18:12:11.906Z,102058.91
2022-08-11T18:14:59.157Z,102049.09
2022-08-11T18:17:46.097Z,102052.19
2022-08-11T18:20:31.550Z,102060.59
2022-08-11T18:23:20.378Z,102058.03
2022-08-11T18:26:07.885Z,102062.97
2022-08-11T18:28:58.356Z,102065.69
2022-08-11T18:31:45.215Z,102070.59
2022-08-11T18:34:39.285Z,102070.78
2022-08-11T18:37:29.515Z,102076.41
2022-08-11T18:40:19.249Z,102072.41
2022-08-11T18:43:07.034Z,102074.44
2022-08-11T18:46:05.401Z,102072.88
2022-08-11T18:48:54.950Z,102072.13
2022-08-11T18:51:42.609Z,102081.97
2022-08-11T18:54:30.541Z,102080.41
2022-08-11T18:57:20.577Z,102081.06
2022-08-11T19:00:07.273Z,102081.34
2022-08-11T19:02:55.939Z,102080.28
2022-08-11T19:06:35.915Z,102087.41
2022-08-11T19:08:55.040Z,102091.75
2022-08-11T19:11:43.641Z,102095.41
2022-08-11T19:14:31.063Z,102092.53
2022-08-11T19:17:44.080Z,102095.28
2022-08-11T19:20:28.158Z,102096.94
2022-08-11T19:23:14.840Z,102104.72
2022-08-11T19:26:04.146Z,102101.13
2022-08-11T19:28:51.925Z,102099.56
2022-08-11T19:31:43.816Z,102100.22
2022-08-11T19:34:32.383Z,102105.59
2022-08-11T19:37:23.520Z,102108.25
2022-08-11T19:40:10.303Z,102109.25
2022-08-11T19:43:01.767Z,102109.16
2022-08-11T19:45:52.152Z,102108.53
2022-08-11T19:48:45.390Z,102108.72
2022-08-11T19:51:32.249Z,102111.03
2022-08-11T19:54:19.697Z,102116.94
2022-08-11T19:57:06.767Z,102110.94
2022-08-11T19:59:58.397Z,102105.19
2022-08-11T20:02:44.045Z,102113.97
2022-08-11T20:05:29.856Z,102111.38
2022-08-11T20:08:16.498Z,102109.00
2022-08-11T20:11:06.320Z,102099.53
2022-08-11T20:13:53.773Z,102103.13
2022-08-11T20:16:42.257Z,102103.88
2022-08-11T20:19:56.361Z,102103.75
2022-08-11T20:22:36.393Z,102115.81
2022-08-11T20:25:24.287Z,102102.50
2022-08-11T20:28:11.527Z,102113.69
2022-08-11T20:30:57.689Z,102116.56
2022-08-11T20:33:44.917Z,102120.44
2022-08-11T20:36:32.181Z,102119.72
2022-08-11T20:39:20.124Z,102125.41
2022-08-11T20:42:07.572Z,102109.22
2022-08-11T20:44:55.901Z,102116.97
2022-08-11T20:47:56.400Z,102114.97
2022-08-11T20:50:46.990Z,102112.56
2022-08-11T20:53:35.872Z,102111.53
2022-08-11T20:59:43.697Z,102109.22
2022-08-11T21:02:40.326Z,102110.66
2022-08-11T21:08:40.477Z,102117.53
2022-08-11T21:11:28.564Z,102116.25
2022-08-11T21:14:15.270Z,102117.81
2022-08-11T21:17:27.216Z,102113.25
2022-08-11T21:20:17.059Z,102118.69
2022-08-11T21:23:10.031Z,102123.06
2022-08-11T21:26:04.840Z,102128.13
2022-08-11T21:28:50.723Z,102126.38
2022-08-11T21:31:38.153Z,102122.66
2022-08-11T21:34:27.413Z,102120.03
2022-08-11T21:37:13.101Z,102129.88
2022-08-11T21:40:00.211Z,102123.00
2022-08-11T21:42:50.683Z,102126.44
2022-08-11T21:45:37.594Z,102120.28
2022-08-11T21:48:25.275Z,102121.44
2022-08-11T21:51:10.957Z,102126.56
2022-08-11T21:53:57.565Z,102130.91
2022-08-11T21:56:45.466Z,102121.28
2022-08-11T21:59:38.546Z,102125.22
2022-08-11T22:02:24.414Z,102134.66
2022-08-11T22:05:10.566Z,102138.38
2022-08-11T22:07:58.411Z,102133.91
2022-08-11T22:10:47.807Z,102139.75
2022-08-11T22:13:33.662Z,102138.03
2022-08-11T22:16:20.812Z,102137.16
2022-08-11T22:19:09.573Z,102132.84
2022-08-11T22:22:04.067Z,102133.88
2022-08-11T22:24:52.245Z,102139.66
2022-08-11T22:27:38.703Z,102139.22
2022-08-11T22:30:25.526Z,102144.19
2022-08-11T22:33:15.165Z,102140.47
2022-08-11T22:36:06.181Z,102138.31
2022-08-11T22:38:53.657Z,102130.88
2022-08-11T22:41:40.180Z,102131.59
2022-08-11T22:44:26.545Z,102137.91
2022-08-11T22:47:15.291Z,102133.00
2022-08-11T22:50:12.133Z,102129.16
2022-08-11T22:52:59.968Z,102123.13
2022-08-11T22:55:47.554Z,102126.97
2022-08-11T22:58:37.773Z,102134.06
2022-08-11T23:01:24.056Z,102131.50
2022-08-11T23:04:10.935Z,102135.78
2022-08-11T23:07:02.409Z,102136.44
2022-08-11T23:09:48.340Z,102131.69
2022-08-11T23:12:34.431Z,102139.38
2022-08-11T23:15:20.230Z,102132.47
2022-08-11T23:18:05.876Z,102134.34
2022-08-11T23:20:57.014Z,102142.50
2022-08-11T23:23:47.293Z,102145.44
2022-08-11T23:26:34.661Z,102140.16
2022-08-11T23:29:22.435Z,102140.56
2022-08-11T23:32:11.120Z,102141.53
2022-08-11T23:35:04.301Z,102138.88
2022-08-11T23:37:50.476Z,102140.25
2022-08-11T23:40:37.460Z,102139.50
2022-08-11T23:43:23.350Z,102137.72
2022-08-11T23:46:08.956Z,102134.00
2022-08-11T23:48:56.306Z,102130.44
2022-08-11T23:51:46.288Z,102135.97
2022-08-11T23:54:37.281Z,102137.34
2022-08-11T23:57:25.030Z,102145.28
